sensor_id;sensor_type;location;lat;lon;timestamp;P1;durP1;ratioP1;P2;durP2;ratioP2
18716;SDS011;9487;50.892;6.906;2024-03-02T00:00:22;3.30;;;2.37;;
18716;SDS011;9487;50.892;6.906;2024-03-02T00:02:52;3.23;;;2.57;;
18716;SDS011;9487;50.892;6.906;2024-03-02T00:05:19;2.20;;;2.00;;
18716;SDS011;9487;50.892;6.906;2024-03-02T00:07:52;2.30;;;2.10;;
18716;SDS011;9487;50.892;6.906;2024-03-02T00:10:22;2.83;;;2.30;;
18716;SDS011;9487;50.892;6.906;2024-03-02T00:12:54;2.70;;;1.97;;
18716;SDS011;9487;50.892;6.906;2024-03-02T00:15:30;3.63;;;2.40;;
18716;SDS011;9487;50.892;6.906;2024-03-02T00:18:12;4.30;;;2.60;;
18716;SDS011;9487;50.892;6.906;2024-03-02T00:20:40;3.30;;;2.20;;
18716;SDS011;9487;50.892;6.906;2024-03-02T00:23:09;4.87;;;2.40;;
18716;SDS011;9487;50.892;6.906;2024-03-02T00:25:40;3.00;;;2.70;;
18716;SDS011;9487;50.892;6.906;2024-03-02T00:31:01;2.80;;;2.50;;
18716;SDS011;9487;50.892;6.906;2024-03-02T00:33:30;3.00;;;2.60;;
18716;SDS011;9487;50.892;6.906;2024-03-02T00:35:59;2.83;;;2.50;;
18716;SDS011;9487;50.892;6.906;2024-03-02T00:38:26;3.87;;;2.33;;
18716;SDS011;9487;50.892;6.906;2024-03-02T00:40:54;2.70;;;1.90;;
18716;SDS011;9487;50.892;6.906;2024-03-02T00:46:28;2.90;;;2.00;;
18716;SDS011;9487;50.892;6.906;2024-03-02T00:48:57;3.83;;;2.33;;
18716;SDS011;9487;50.892;6.906;2024-03-02T00:51:26;2.10;;;1.90;;
18716;SDS011;9487;50.892;6.906;2024-03-02T00:53:54;2.27;;;2.07;;
18716;SDS011;9487;50.892;6.906;2024-03-02T00:56:24;3.77;;;2.20;;
18716;SDS011;9487;50.892;6.906;2024-03-02T00:58:54;2.30;;;2.10;;
18716;SDS011;9487;50.892;6.906;2024-03-02T01:01:21;2.70;;;1.87;;
18716;SDS011;9487;50.892;6.906;2024-03-02T01:03:53;1.97;;;1.63;;
18716;SDS011;9487;50.892;6.906;2024-03-02T01:06:20;2.57;;;1.90;;
18716;SDS011;9487;50.892;6.906;2024-03-02T01:08:47;2.17;;;1.90;;
18716;SDS011;9487;50.892;6.906;2024-03-02T01:11:16;2.47;;;1.73;;
18716;SDS011;9487;50.892;6.906;2024-03-02T01:13:44;2.83;;;2.20;;
18716;SDS011;9487;50.892;6.906;2024-03-02T01:16:11;3.43;;;2.40;;
18716;SDS011;9487;50.892;6.906;2024-03-02T01:18:40;3.47;;;2.40;;
18716;SDS011;9487;50.892;6.906;2024-03-02T01:21:09;4.43;;;2.70;;
18716;SDS011;9487;50.892;6.906;2024-03-02T01:23:36;4.00;;;2.60;;
18716;SDS011;9487;50.892;6.906;2024-03-02T01:26:02;2.20;;;2.00;;
18716;SDS011;9487;50.892;6.906;2024-03-02T01:28:29;2.57;;;1.90;;
18716;SDS011;9487;50.892;6.906;2024-03-02T01:30:56;2.37;;;1.70;;
18716;SDS011;9487;50.892;6.906;2024-03-02T01:33:22;1.73;;;1.57;;
18716;SDS011;9487;50.892;6.906;2024-03-02T01:35:50;3.13;;;1.80;;
18716;SDS011;9487;50.892;6.906;2024-03-02T01:38:18;2.10;;;1.90;;
18716;SDS011;9487;50.892;6.906;2024-03-02T01:40:46;1.80;;;1.70;;
18716;SDS011;9487;50.892;6.906;2024-03-02T01:43:13;2.67;;;2.00;;
18716;SDS011;9487;50.892;6.906;2024-03-02T01:45:41;3.00;;;1.97;;
18716;SDS011;9487;50.892;6.906;2024-03-02T01:48:08;2.10;;;1.90;;
18716;SDS011;9487;50.892;6.906;2024-03-02T01:50:35;2.67;;;1.70;;
18716;SDS011;9487;50.892;6.906;2024-03-02T01:53:04;2.03;;;1.73;;
18716;SDS011;9487;50.892;6.906;2024-03-02T01:55:33;2.43;;;1.83;;
18716;SDS011;9487;50.892;6.906;2024-03-02T01:58:00;2.30;;;1.60;;
18716;SDS011;9487;50.892;6.906;2024-03-02T02:00:27;2.40;;;1.70;;
18716;SDS011;9487;50.892;6.906;2024-03-02T02:02:55;2.20;;;1.70;;
18716;SDS011;9487;50.892;6.906;2024-03-02T02:05:22;2.60;;;1.57;;
18716;SDS011;9487;50.892;6.906;2024-03-02T02:07:49;2.00;;;1.50;;
18716;SDS011;9487;50.892;6.906;2024-03-02T02:10:17;1.83;;;1.50;;
18716;SDS011;9487;50.892;6.906;2024-03-02T02:12:46;1.93;;;1.60;;
18716;SDS011;9487;50.892;6.906;2024-03-02T02:15:25;2.00;;;1.37;;
18716;SDS011;9487;50.892;6.906;2024-03-02T02:17:53;2.33;;;1.60;;
18716;SDS011;9487;50.892;6.906;2024-03-02T02:20:21;2.53;;;1.60;;
18716;SDS011;9487;50.892;6.906;2024-03-02T02:22:58;2.03;;;1.53;;
18716;SDS011;9487;50.892;6.906;2024-03-02T02:25:26;2.33;;;1.60;;
18716;SDS011;9487;50.892;6.906;2024-03-02T02:27:54;3.37;;;1.80;;
18716;SDS011;9487;50.892;6.906;2024-03-02T02:30:22;3.93;;;1.60;;
18716;SDS011;9487;50.892;6.906;2024-03-02T02:32:50;2.40;;;1.73;;
18716;SDS011;9487;50.892;6.906;2024-03-02T02:35:17;2.00;;;1.60;;
18716;SDS011;9487;50.892;6.906;2024-03-02T02:37:45;2.27;;;1.37;;
18716;SDS011;9487;50.892;6.906;2024-03-02T02:40:15;2.63;;;1.57;;
18716;SDS011;9487;50.892;6.906;2024-03-02T02:42:44;3.53;;;1.27;;
18716;SDS011;9487;50.892;6.906;2024-03-02T02:45:11;2.93;;;1.60;;
18716;SDS011;9487;50.892;6.906;2024-03-02T02:47:38;3.13;;;1.50;;
18716;SDS011;9487;50.892;6.906;2024-03-02T02:50:07;1.80;;;1.47;;
18716;SDS011;9487;50.892;6.906;2024-03-02T02:52:34;1.73;;;1.40;;
18716;SDS011;9487;50.892;6.906;2024-03-02T02:55:04;2.13;;;1.50;;
18716;SDS011;9487;50.892;6.906;2024-03-02T02:57:34;1.80;;;1.53;;
18716;SDS011;9487;50.892;6.906;2024-03-02T03:00:05;2.20;;;1.50;;
18716;SDS011;9487;50.892;6.906;2024-03-02T03:02:36;2.00;;;1.47;;
18716;SDS011;9487;50.892;6.906;2024-03-02T03:05:07;1.90;;;1.40;;
18716;SDS011;9487;50.892;6.906;2024-03-02T03:07:35;3.43;;;1.47;;
18716;SDS011;9487;50.892;6.906;2024-03-02T03:10:02;1.80;;;1.53;;
18716;SDS011;9487;50.892;6.906;2024-03-02T03:12:31;1.53;;;1.40;;
18716;SDS011;9487;50.892;6.906;2024-03-02T03:15:00;1.77;;;1.33;;
18716;SDS011;9487;50.892;6.906;2024-03-02T03:17:28;1.50;;;1.30;;
18716;SDS011;9487;50.892;6.906;2024-03-02T03:19:55;2.23;;;1.60;;
18716;SDS011;9487;50.892;6.906;2024-03-02T03:22:22;2.67;;;1.60;;
18716;SDS011;9487;50.892;6.906;2024-03-02T03:24:49;2.23;;;1.70;;
18716;SDS011;9487;50.892;6.906;2024-03-02T03:27:16;1.70;;;1.37;;
18716;SDS011;9487;50.892;6.906;2024-03-02T03:29:44;1.57;;;1.30;;
18716;SDS011;9487;50.892;6.906;2024-03-02T03:32:13;1.70;;;1.50;;
18716;SDS011;9487;50.892;6.906;2024-03-02T03:34:41;1.87;;;1.50;;
18716;SDS011;9487;50.892;6.906;2024-03-02T03:37:08;3.03;;;1.83;;
18716;SDS011;9487;50.892;6.906;2024-03-02T03:39:35;1.83;;;1.53;;
18716;SDS011;9487;50.892;6.906;2024-03-02T03:42:02;2.43;;;1.50;;
18716;SDS011;9487;50.892;6.906;2024-03-02T03:44:30;1.70;;;1.60;;
18716;SDS011;9487;50.892;6.906;2024-03-02T03:46:57;2.83;;;1.90;;
18716;SDS011;9487;50.892;6.906;2024-03-02T03:49:25;2.43;;;1.70;;
18716;SDS011;9487;50.892;6.906;2024-03-02T03:51:52;1.97;;;1.60;;
18716;SDS011;9487;50.892;6.906;2024-03-02T03:54:19;2.00;;;1.60;;
18716;SDS011;9487;50.892;6.906;2024-03-02T03:56:46;1.73;;;1.50;;
18716;SDS011;9487;50.892;6.906;2024-03-02T03:59:13;3.50;;;1.70;;
18716;SDS011;9487;50.892;6.906;2024-03-02T04:01:40;1.50;;;1.37;;
18716;SDS011;9487;50.892;6.906;2024-03-02T04:04:07;1.93;;;1.47;;
18716;SDS011;9487;50.892;6.906;2024-03-02T04:06:35;1.97;;;1.43;;
18716;SDS011;9487;50.892;6.906;2024-03-02T04:09:03;1.97;;;1.40;;
18716;SDS011;9487;50.892;6.906;2024-03-02T04:11:30;1.67;;;1.57;;
18716;SDS011;9487;50.892;6.906;2024-03-02T04:13:57;1.60;;;1.43;;
18716;SDS011;9487;50.892;6.906;2024-03-02T04:16:24;1.60;;;1.47;;
18716;SDS011;9487;50.892;6.906;2024-03-02T04:18:51;2.77;;;1.50;;
18716;SDS011;9487;50.892;6.906;2024-03-02T04:21:18;2.23;;;1.40;;
18716;SDS011;9487;50.892;6.906;2024-03-02T04:23:47;1.63;;;1.40;;
18716;SDS011;9487;50.892;6.906;2024-03-02T04:26:14;2.67;;;1.60;;
18716;SDS011;9487;50.892;6.906;2024-03-02T04:28:44;2.40;;;1.67;;
18716;SDS011;9487;50.892;6.906;2024-03-02T04:31:11;1.80;;;1.50;;
18716;SDS011;9487;50.892;6.906;2024-03-02T04:33:39;2.20;;;1.70;;
18716;SDS011;9487;50.892;6.906;2024-03-02T04:36:06;2.10;;;1.40;;
18716;SDS011;9487;50.892;6.906;2024-03-02T04:38:34;1.47;;;1.37;;
18716;SDS011;9487;50.892;6.906;2024-03-02T04:41:03;1.70;;;1.40;;
18716;SDS011;9487;50.892;6.906;2024-03-02T04:43:31;2.03;;;1.70;;
18716;SDS011;9487;50.892;6.906;2024-03-02T04:46:01;2.80;;;1.80;;
18716;SDS011;9487;50.892;6.906;2024-03-02T04:48:28;2.37;;;1.60;;
18716;SDS011;9487;50.892;6.906;2024-03-02T04:50:55;3.03;;;1.50;;
18716;SDS011;9487;50.892;6.906;2024-03-02T04:53:23;2.20;;;1.43;;
18716;SDS011;9487;50.892;6.906;2024-03-02T04:55:50;2.70;;;1.90;;
18716;SDS011;9487;50.892;6.906;2024-03-02T04:58:36;3.23;;;1.70;;
18716;SDS011;9487;50.892;6.906;2024-03-02T05:01:03;1.53;;;1.40;;
18716;SDS011;9487;50.892;6.906;2024-03-02T05:03:31;1.83;;;1.50;;
18716;SDS011;9487;50.892;6.906;2024-03-02T05:05:59;2.73;;;1.53;;
18716;SDS011;9487;50.892;6.906;2024-03-02T05:08:28;2.20;;;1.50;;
18716;SDS011;9487;50.892;6.906;2024-03-02T05:10:55;3.17;;;1.70;;
18716;SDS011;9487;50.892;6.906;2024-03-02T05:13:44;2.30;;;1.67;;
18716;SDS011;9487;50.892;6.906;2024-03-02T05:16:10;2.70;;;1.70;;
18716;SDS011;9487;50.892;6.906;2024-03-02T05:18:38;1.70;;;1.60;;
18716;SDS011;9487;50.892;6.906;2024-03-02T05:21:05;2.87;;;2.17;;
18716;SDS011;9487;50.892;6.906;2024-03-02T05:23:32;2.10;;;1.80;;
18716;SDS011;9487;50.892;6.906;2024-03-02T05:25:59;2.70;;;1.90;;
18716;SDS011;9487;50.892;6.906;2024-03-02T05:28:26;4.10;;;1.90;;
18716;SDS011;9487;50.892;6.906;2024-03-02T05:30:55;2.57;;;1.87;;
18716;SDS011;9487;50.892;6.906;2024-03-02T05:33:22;3.40;;;1.90;;
18716;SDS011;9487;50.892;6.906;2024-03-02T05:35:50;2.50;;;1.80;;
18716;SDS011;9487;50.892;6.906;2024-03-02T05:38:17;3.20;;;2.00;;
18716;SDS011;9487;50.892;6.906;2024-03-02T05:40:44;2.27;;;1.80;;
18716;SDS011;9487;50.892;6.906;2024-03-02T05:43:11;2.57;;;2.10;;
18716;SDS011;9487;50.892;6.906;2024-03-02T05:45:38;1.87;;;1.50;;
18716;SDS011;9487;50.892;6.906;2024-03-02T05:48:07;2.27;;;1.50;;
18716;SDS011;9487;50.892;6.906;2024-03-02T05:50:34;3.50;;;1.50;;
18716;SDS011;9487;50.892;6.906;2024-03-02T05:53:02;1.70;;;1.57;;
18716;SDS011;9487;50.892;6.906;2024-03-02T05:55:29;2.33;;;1.67;;
18716;SDS011;9487;50.892;6.906;2024-03-02T05:57:56;2.80;;;1.60;;
18716;SDS011;9487;50.892;6.906;2024-03-02T06:00:40;3.40;;;1.50;;
18716;SDS011;9487;50.892;6.906;2024-03-02T06:03:09;2.30;;;1.67;;
18716;SDS011;9487;50.892;6.906;2024-03-02T06:05:36;3.10;;;1.67;;
18716;SDS011;9487;50.892;6.906;2024-03-02T06:08:03;2.20;;;1.80;;
18716;SDS011;9487;50.892;6.906;2024-03-02T06:10:32;2.60;;;2.03;;
18716;SDS011;9487;50.892;6.906;2024-03-02T06:12:59;3.93;;;2.40;;
18716;SDS011;9487;50.892;6.906;2024-03-02T06:15:26;2.07;;;1.70;;
18716;SDS011;9487;50.892;6.906;2024-03-02T06:17:54;3.10;;;1.80;;
18716;SDS011;9487;50.892;6.906;2024-03-02T06:20:23;1.97;;;1.70;;
18716;SDS011;9487;50.892;6.906;2024-03-02T06:22:55;2.50;;;1.60;;
18716;SDS011;9487;50.892;6.906;2024-03-02T06:25:22;2.33;;;1.50;;
18716;SDS011;9487;50.892;6.906;2024-03-02T06:27:50;3.40;;;1.77;;
18716;SDS011;9487;50.892;6.906;2024-03-02T06:30:18;2.43;;;2.00;;
18716;SDS011;9487;50.892;6.906;2024-03-02T06:32:47;3.90;;;2.20;;
18716;SDS011;9487;50.892;6.906;2024-03-02T06:35:14;3.13;;;1.73;;
18716;SDS011;9487;50.892;6.906;2024-03-02T06:37:44;3.23;;;1.90;;
18716;SDS011;9487;50.892;6.906;2024-03-02T06:40:12;2.27;;;1.90;;
18716;SDS011;9487;50.892;6.906;2024-03-02T06:42:39;3.53;;;1.87;;
18716;SDS011;9487;50.892;6.906;2024-03-02T06:45:06;2.27;;;1.83;;
18716;SDS011;9487;50.892;6.906;2024-03-02T06:47:33;1.93;;;1.57;;
18716;SDS011;9487;50.892;6.906;2024-03-02T06:50:00;2.50;;;1.70;;
18716;SDS011;9487;50.892;6.906;2024-03-02T06:52:27;2.80;;;1.90;;
18716;SDS011;9487;50.892;6.906;2024-03-02T06:54:58;4.13;;;1.80;;
18716;SDS011;9487;50.892;6.906;2024-03-02T06:57:24;3.07;;;1.40;;
18716;SDS011;9487;50.892;6.906;2024-03-02T06:59:51;4.33;;;1.60;;
18716;SDS011;9487;50.892;6.906;2024-03-02T07:02:23;3.07;;;1.80;;
18716;SDS011;9487;50.892;6.906;2024-03-02T07:04:51;2.73;;;1.70;;
18716;SDS011;9487;50.892;6.906;2024-03-02T07:07:19;4.07;;;2.07;;
18716;SDS011;9487;50.892;6.906;2024-03-02T07:09:45;3.03;;;1.50;;
18716;SDS011;9487;50.892;6.906;2024-03-02T07:12:15;2.70;;;1.90;;
18716;SDS011;9487;50.892;6.906;2024-03-02T07:14:42;4.17;;;1.80;;
18716;SDS011;9487;50.892;6.906;2024-03-02T07:17:22;1.70;;;1.60;;
18716;SDS011;9487;50.892;6.906;2024-03-02T07:19:50;3.43;;;1.67;;
18716;SDS011;9487;50.892;6.906;2024-03-02T07:22:17;3.43;;;1.90;;
18716;SDS011;9487;50.892;6.906;2024-03-02T07:24:44;2.83;;;1.50;;
18716;SDS011;9487;50.892;6.906;2024-03-02T07:27:11;3.10;;;1.87;;
18716;SDS011;9487;50.892;6.906;2024-03-02T07:29:41;3.80;;;1.90;;
18716;SDS011;9487;50.892;6.906;2024-03-02T07:32:08;2.07;;;1.77;;
18716;SDS011;9487;50.892;6.906;2024-03-02T07:34:36;2.43;;;2.10;;
18716;SDS011;9487;50.892;6.906;2024-03-02T07:37:03;3.40;;;2.20;;
18716;SDS011;9487;50.892;6.906;2024-03-02T07:39:31;3.00;;;1.93;;
18716;SDS011;9487;50.892;6.906;2024-03-02T07:41:58;3.43;;;1.97;;
18716;SDS011;9487;50.892;6.906;2024-03-02T07:44:26;5.20;;;2.10;;
18716;SDS011;9487;50.892;6.906;2024-03-02T07:46:56;2.97;;;2.43;;
18716;SDS011;9487;50.892;6.906;2024-03-02T07:49:23;4.30;;;2.13;;
18716;SDS011;9487;50.892;6.906;2024-03-02T07:51:50;8.73;;;4.77;;
18716;SDS011;9487;50.892;6.906;2024-03-02T07:54:17;3.90;;;2.50;;
18716;SDS011;9487;50.892;6.906;2024-03-02T07:56:44;3.00;;;2.23;;
18716;SDS011;9487;50.892;6.906;2024-03-02T07:59:12;2.83;;;2.20;;
18716;SDS011;9487;50.892;6.906;2024-03-02T08:01:43;4.43;;;2.10;;
18716;SDS011;9487;50.892;6.906;2024-03-02T08:04:19;3.63;;;2.00;;
18716;SDS011;9487;50.892;6.906;2024-03-02T08:06:46;3.00;;;2.10;;
18716;SDS011;9487;50.892;6.906;2024-03-02T08:09:16;3.83;;;1.80;;
18716;SDS011;9487;50.892;6.906;2024-03-02T08:11:43;2.97;;;1.87;;
18716;SDS011;9487;50.892;6.906;2024-03-02T08:14:11;2.37;;;2.00;;
18716;SDS011;9487;50.892;6.906;2024-03-02T08:16:41;4.90;;;1.90;;
18716;SDS011;9487;50.892;6.906;2024-03-02T08:19:09;2.93;;;2.40;;
18716;SDS011;9487;50.892;6.906;2024-03-02T08:21:39;3.87;;;2.43;;
18716;SDS011;9487;50.892;6.906;2024-03-02T08:24:06;3.27;;;1.90;;
18716;SDS011;9487;50.892;6.906;2024-03-02T08:26:34;2.87;;;2.00;;
18716;SDS011;9487;50.892;6.906;2024-03-02T08:29:05;3.10;;;1.93;;
18716;SDS011;9487;50.892;6.906;2024-03-02T08:31:32;3.70;;;2.23;;
18716;SDS011;9487;50.892;6.906;2024-03-02T08:34:01;2.97;;;2.00;;
18716;SDS011;9487;50.892;6.906;2024-03-02T08:36:28;2.40;;;1.53;;
18716;SDS011;9487;50.892;6.906;2024-03-02T08:38:58;2.90;;;1.70;;
18716;SDS011;9487;50.892;6.906;2024-03-02T08:41:25;2.17;;;1.50;;
18716;SDS011;9487;50.892;6.906;2024-03-02T08:43:53;3.87;;;2.10;;
18716;SDS011;9487;50.892;6.906;2024-03-02T08:46:20;3.73;;;2.00;;
18716;SDS011;9487;50.892;6.906;2024-03-02T08:48:47;2.57;;;1.60;;
18716;SDS011;9487;50.892;6.906;2024-03-02T08:51:14;3.10;;;2.03;;
18716;SDS011;9487;50.892;6.906;2024-03-02T08:53:42;1.80;;;1.50;;
18716;SDS011;9487;50.892;6.906;2024-03-02T08:56:11;3.00;;;1.77;;
18716;SDS011;9487;50.892;6.906;2024-03-02T08:58:38;3.00;;;1.60;;
18716;SDS011;9487;50.892;6.906;2024-03-02T09:01:06;3.57;;;1.50;;
18716;SDS011;9487;50.892;6.906;2024-03-02T09:03:33;1.87;;;1.60;;
18716;SDS011;9487;50.892;6.906;2024-03-02T09:06:00;3.30;;;1.63;;
18716;SDS011;9487;50.892;6.906;2024-03-02T09:08:27;3.20;;;1.80;;
18716;SDS011;9487;50.892;6.906;2024-03-02T09:10:56;2.57;;;1.83;;
18716;SDS011;9487;50.892;6.906;2024-03-02T09:13:25;3.97;;;2.13;;
18716;SDS011;9487;50.892;6.906;2024-03-02T09:15:52;2.80;;;2.00;;
18716;SDS011;9487;50.892;6.906;2024-03-02T09:18:19;3.77;;;1.80;;
18716;SDS011;9487;50.892;6.906;2024-03-02T09:20:46;3.90;;;2.00;;
18716;SDS011;9487;50.892;6.906;2024-03-02T09:23:12;2.57;;;1.83;;
18716;SDS011;9487;50.892;6.906;2024-03-02T09:25:40;3.00;;;1.90;;
18716;SDS011;9487;50.892;6.906;2024-03-02T09:28:07;3.17;;;1.70;;
18716;SDS011;9487;50.892;6.906;2024-03-02T09:30:36;4.13;;;1.77;;
18716;SDS011;9487;50.892;6.906;2024-03-02T09:33:03;4.77;;;1.23;;
18716;SDS011;9487;50.892;6.906;2024-03-02T09:35:31;2.73;;;1.30;;
18716;SDS011;9487;50.892;6.906;2024-03-02T09:37:59;2.07;;;1.07;;
18716;SDS011;9487;50.892;6.906;2024-03-02T09:40:26;1.30;;;1.10;;
18716;SDS011;9487;50.892;6.906;2024-03-02T09:42:53;1.80;;;1.10;;
18716;SDS011;9487;50.892;6.906;2024-03-02T09:45:22;1.73;;;1.20;;
18716;SDS011;9487;50.892;6.906;2024-03-02T09:47:52;2.73;;;1.47;;
18716;SDS011;9487;50.892;6.906;2024-03-02T09:50:20;2.33;;;1.57;;
18716;SDS011;9487;50.892;6.906;2024-03-02T09:52:48;1.80;;;1.30;;
18716;SDS011;9487;50.892;6.906;2024-03-02T09:55:15;2.27;;;1.23;;
18716;SDS011;9487;50.892;6.906;2024-03-02T09:57:43;2.60;;;1.37;;
18716;SDS011;9487;50.892;6.906;2024-03-02T10:00:11;2.20;;;1.37;;
18716;SDS011;9487;50.892;6.906;2024-03-02T10:02:39;2.50;;;1.40;;
18716;SDS011;9487;50.892;6.906;2024-03-02T10:05:09;1.53;;;1.27;;
18716;SDS011;9487;50.892;6.906;2024-03-02T10:07:36;2.40;;;1.40;;
18716;SDS011;9487;50.892;6.906;2024-03-02T10:10:12;2.27;;;1.60;;
18716;SDS011;9487;50.892;6.906;2024-03-02T10:12:40;2.07;;;1.50;;
18716;SDS011;9487;50.892;6.906;2024-03-02T10:15:07;2.33;;;1.40;;
18716;SDS011;9487;50.892;6.906;2024-03-02T10:17:34;3.67;;;1.60;;
18716;SDS011;9487;50.892;6.906;2024-03-02T10:22:53;1.87;;;1.60;;
18716;SDS011;9487;50.892;6.906;2024-03-02T10:25:30;4.03;;;1.80;;
18716;SDS011;9487;50.892;6.906;2024-03-02T10:27:58;2.60;;;2.00;;
18716;SDS011;9487;50.892;6.906;2024-03-02T10:30:26;2.57;;;1.60;;
18716;SDS011;9487;50.892;6.906;2024-03-02T10:32:54;2.27;;;1.60;;
18716;SDS011;9487;50.892;6.906;2024-03-02T10:35:22;3.27;;;1.90;;
18716;SDS011;9487;50.892;6.906;2024-03-02T10:37:52;4.27;;;1.70;;
18716;SDS011;9487;50.892;6.906;2024-03-02T10:40:21;2.90;;;1.50;;
18716;SDS011;9487;50.892;6.906;2024-03-02T10:42:48;1.93;;;1.73;;
18716;SDS011;9487;50.892;6.906;2024-03-02T10:45:16;3.87;;;1.60;;
18716;SDS011;9487;50.892;6.906;2024-03-02T10:47:44;2.80;;;1.73;;
18716;SDS011;9487;50.892;6.906;2024-03-02T10:50:12;2.00;;;1.60;;
18716;SDS011;9487;50.892;6.906;2024-03-02T10:52:39;4.17;;;1.53;;
18716;SDS011;9487;50.892;6.906;2024-03-02T10:55:08;2.57;;;1.50;;
18716;SDS011;9487;50.892;6.906;2024-03-02T10:57:40;3.33;;;1.80;;
18716;SDS011;9487;50.892;6.906;2024-03-02T11:00:11;4.00;;;1.80;;
18716;SDS011;9487;50.892;6.906;2024-03-02T11:02:42;3.57;;;1.70;;
18716;SDS011;9487;50.892;6.906;2024-03-02T11:05:13;3.23;;;1.40;;
18716;SDS011;9487;50.892;6.906;2024-03-02T11:07:50;2.67;;;1.70;;
18716;SDS011;9487;50.892;6.906;2024-03-02T11:10:20;3.63;;;1.60;;
18716;SDS011;9487;50.892;6.906;2024-03-02T11:12:51;3.00;;;1.57;;
18716;SDS011;9487;50.892;6.906;2024-03-02T11:15:23;1.53;;;1.27;;
18716;SDS011;9487;50.892;6.906;2024-03-02T11:17:51;3.43;;;1.30;;
18716;SDS011;9487;50.892;6.906;2024-03-02T11:20:19;5.90;;;1.70;;
18716;SDS011;9487;50.892;6.906;2024-03-02T11:22:47;2.93;;;1.83;;
18716;SDS011;9487;50.892;6.906;2024-03-02T11:25:25;3.63;;;1.57;;
18716;SDS011;9487;50.892;6.906;2024-03-02T11:27:59;2.37;;;1.40;;
18716;SDS011;9487;50.892;6.906;2024-03-02T11:30:48;1.87;;;1.40;;
18716;SDS011;9487;50.892;6.906;2024-03-02T11:33:16;2.27;;;1.50;;
18716;SDS011;9487;50.892;6.906;2024-03-02T11:35:54;2.03;;;1.70;;
18716;SDS011;9487;50.892;6.906;2024-03-02T11:38:22;2.47;;;1.37;;
18716;SDS011;9487;50.892;6.906;2024-03-02T11:40:51;2.50;;;1.40;;
18716;SDS011;9487;50.892;6.906;2024-03-02T11:43:18;2.73;;;1.33;;
18716;SDS011;9487;50.892;6.906;2024-03-02T11:45:46;1.70;;;1.20;;
18716;SDS011;9487;50.892;6.906;2024-03-02T11:48:14;2.47;;;1.53;;
18716;SDS011;9487;50.892;6.906;2024-03-02T11:50:41;2.70;;;1.10;;
18716;SDS011;9487;50.892;6.906;2024-03-02T11:53:09;1.30;;;1.20;;
18716;SDS011;9487;50.892;6.906;2024-03-02T11:55:38;1.80;;;1.20;;
18716;SDS011;9487;50.892;6.906;2024-03-02T11:58:07;2.40;;;1.13;;
18716;SDS011;9487;50.892;6.906;2024-03-02T12:00:34;1.67;;;1.07;;
18716;SDS011;9487;50.892;6.906;2024-03-02T12:03:02;2.80;;;1.30;;
18716;SDS011;9487;50.892;6.906;2024-03-02T12:05:32;1.67;;;1.20;;
18716;SDS011;9487;50.892;6.906;2024-03-02T12:07:59;1.33;;;1.10;;
18716;SDS011;9487;50.892;6.906;2024-03-02T12:10:27;1.80;;;1.13;;
18716;SDS011;9487;50.892;6.906;2024-03-02T12:12:55;2.50;;;1.40;;
18716;SDS011;9487;50.892;6.906;2024-03-02T12:15:25;2.90;;;1.43;;
18716;SDS011;9487;50.892;6.906;2024-03-02T12:17:53;1.50;;;1.20;;
18716;SDS011;9487;50.892;6.906;2024-03-02T12:20:20;2.03;;;1.13;;
18716;SDS011;9487;50.892;6.906;2024-03-02T12:22:48;1.53;;;1.10;;
18716;SDS011;9487;50.892;6.906;2024-03-02T12:25:15;2.20;;;1.33;;
18716;SDS011;9487;50.892;6.906;2024-03-02T12:27:42;1.53;;;1.27;;
18716;SDS011;9487;50.892;6.906;2024-03-02T12:30:09;2.53;;;1.50;;
18716;SDS011;9487;50.892;6.906;2024-03-02T12:32:38;2.27;;;1.50;;
18716;SDS011;9487;50.892;6.906;2024-03-02T12:35:05;2.67;;;1.40;;
18716;SDS011;9487;50.892;6.906;2024-03-02T12:37:32;2.13;;;1.50;;
18716;SDS011;9487;50.892;6.906;2024-03-02T12:39:59;2.23;;;1.53;;
18716;SDS011;9487;50.892;6.906;2024-03-02T12:42:26;2.60;;;1.30;;
18716;SDS011;9487;50.892;6.906;2024-03-02T12:44:53;1.60;;;1.40;;
18716;SDS011;9487;50.892;6.906;2024-03-02T12:47:20;1.83;;;1.30;;
18716;SDS011;9487;50.892;6.906;2024-03-02T12:49:50;1.67;;;1.20;;
18716;SDS011;9487;50.892;6.906;2024-03-02T12:52:17;3.27;;;1.30;;
18716;SDS011;9487;50.892;6.906;2024-03-02T12:54:44;1.87;;;1.50;;
18716;SDS011;9487;50.892;6.906;2024-03-02T12:57:16;1.60;;;1.30;;
18716;SDS011;9487;50.892;6.906;2024-03-02T12:59:44;4.07;;;1.40;;
18716;SDS011;9487;50.892;6.906;2024-03-02T13:02:16;2.07;;;1.50;;
18716;SDS011;9487;50.892;6.906;2024-03-02T13:04:43;1.90;;;1.33;;
18716;SDS011;9487;50.892;6.906;2024-03-02T13:07:12;2.53;;;1.50;;
18716;SDS011;9487;50.892;6.906;2024-03-02T13:09:39;2.00;;;1.47;;
18716;SDS011;9487;50.892;6.906;2024-03-02T13:12:06;1.70;;;1.50;;
18716;SDS011;9487;50.892;6.906;2024-03-02T13:14:36;1.73;;;1.20;;
18716;SDS011;9487;50.892;6.906;2024-03-02T13:17:05;1.40;;;1.00;;
18716;SDS011;9487;50.892;6.906;2024-03-02T13:19:34;1.87;;;1.30;;
18716;SDS011;9487;50.892;6.906;2024-03-02T13:22:01;3.97;;;1.37;;
18716;SDS011;9487;50.892;6.906;2024-03-02T13:24:30;1.70;;;1.10;;
18716;SDS011;9487;50.892;6.906;2024-03-02T13:26:56;1.60;;;1.10;;
18716;SDS011;9487;50.892;6.906;2024-03-02T13:29:24;1.50;;;1.20;;
18716;SDS011;9487;50.892;6.906;2024-03-02T13:31:51;1.10;;;1.00;;
18716;SDS011;9487;50.892;6.906;2024-03-02T13:34:18;3.30;;;1.20;;
18716;SDS011;9487;50.892;6.906;2024-03-02T13:36:45;1.60;;;1.07;;
18716;SDS011;9487;50.892;6.906;2024-03-02T13:39:12;1.27;;;1.00;;
18716;SDS011;9487;50.892;6.906;2024-03-02T13:41:41;2.20;;;1.27;;
18716;SDS011;9487;50.892;6.906;2024-03-02T13:44:16;1.57;;;1.43;;
18716;SDS011;9487;50.892;6.906;2024-03-02T13:46:43;1.17;;;1.07;;
18716;SDS011;9487;50.892;6.906;2024-03-02T13:49:11;1.70;;;1.30;;
18716;SDS011;9487;50.892;6.906;2024-03-02T13:51:37;1.77;;;1.17;;
18716;SDS011;9487;50.892;6.906;2024-03-02T13:54:04;2.10;;;1.20;;
18716;SDS011;9487;50.892;6.906;2024-03-02T13:56:31;2.17;;;1.23;;
18716;SDS011;9487;50.892;6.906;2024-03-02T13:58:59;2.63;;;1.57;;
18716;SDS011;9487;50.892;6.906;2024-03-02T14:01:27;2.50;;;1.00;;
18716;SDS011;9487;50.892;6.906;2024-03-02T14:03:54;1.90;;;1.20;;
18716;SDS011;9487;50.892;6.906;2024-03-02T14:06:21;2.40;;;1.10;;
18716;SDS011;9487;50.892;6.906;2024-03-02T14:08:48;2.93;;;1.10;;
18716;SDS011;9487;50.892;6.906;2024-03-02T14:11:14;1.63;;;1.00;;
18716;SDS011;9487;50.892;6.906;2024-03-02T14:13:41;3.07;;;1.10;;
18716;SDS011;9487;50.892;6.906;2024-03-02T14:16:10;1.53;;;1.30;;
18716;SDS011;9487;50.892;6.906;2024-03-02T14:18:37;1.80;;;1.10;;
18716;SDS011;9487;50.892;6.906;2024-03-02T14:21:04;1.73;;;1.00;;
18716;SDS011;9487;50.892;6.906;2024-03-02T14:23:31;1.60;;;1.30;;
18716;SDS011;9487;50.892;6.906;2024-03-02T14:25:57;2.30;;;1.13;;
18716;SDS011;9487;50.892;6.906;2024-03-02T14:28:24;1.07;;;0.90;;
18716;SDS011;9487;50.892;6.906;2024-03-02T14:30:51;3.03;;;1.23;;
18716;SDS011;9487;50.892;6.906;2024-03-02T14:33:20;1.53;;;1.33;;
18716;SDS011;9487;50.892;6.906;2024-03-02T14:35:47;1.93;;;1.23;;
18716;SDS011;9487;50.892;6.906;2024-03-02T14:38:14;4.07;;;1.27;;
18716;SDS011;9487;50.892;6.906;2024-03-02T14:40:40;2.63;;;1.27;;
18716;SDS011;9487;50.892;6.906;2024-03-02T14:43:08;1.33;;;1.23;;
18716;SDS011;9487;50.892;6.906;2024-03-02T14:45:34;3.03;;;1.10;;
18716;SDS011;9487;50.892;6.906;2024-03-02T14:48:02;1.20;;;1.00;;
18716;SDS011;9487;50.892;6.906;2024-03-02T14:50:30;1.63;;;1.00;;
18716;SDS011;9487;50.892;6.906;2024-03-02T14:52:58;2.50;;;1.10;;
18716;SDS011;9487;50.892;6.906;2024-03-02T14:55:26;1.20;;;1.10;;
18716;SDS011;9487;50.892;6.906;2024-03-02T14:57:53;1.20;;;0.90;;
18716;SDS011;9487;50.892;6.906;2024-03-02T15:00:19;1.57;;;1.10;;
18716;SDS011;9487;50.892;6.906;2024-03-02T15:02:46;2.07;;;1.20;;
18716;SDS011;9487;50.892;6.906;2024-03-02T15:05:13;2.40;;;1.30;;
18716;SDS011;9487;50.892;6.906;2024-03-02T15:07:41;2.20;;;1.50;;
18716;SDS011;9487;50.892;6.906;2024-03-02T15:10:08;1.33;;;1.17;;
18716;SDS011;9487;50.892;6.906;2024-03-02T15:12:35;1.90;;;1.33;;
18716;SDS011;9487;50.892;6.906;2024-03-02T15:15:02;3.17;;;1.20;;